Time;durP1;ratioP1;P1;durP2;ratioP2;P2;SDS_P1;SDS_P2;PMS_P1;PMS_P2;Temp;Humidity;BMP_temperature;BMP_pressure;BME280_temperature;BME280_humidity;BME280_pressure;Samples;Min_cycle;Max_cycle;Signal;HPM_P1;HPM_P2
2022/01/03 00:00:09;;;;;;;2.00;0.40;;;7.70;99.90;;;;;;10463089;28;20554;-82
2022/01/03 00:05:35;;;;;;;1.90;0.70;;;7.70;99.90;;;;;;10466287;28;20198;-79
2022/01/03 00:10:57;;;;;;;4.47;0.90;;;7.80;99.90;;;;;;10471585;28;20289;-81
2022/01/03 00:16:23;;;;;;;1.33;0.63;;;7.80;99.90;;;;;;10471054;28;20377;-80
2022/01/03 00:21:46;;;;;;;0.47;0.47;;;7.80;99.90;;;;;;10470843;28;20203;-81
2022/01/03 00:27:14;;;;;;;1.13;0.60;;;7.70;99.90;;;;;;10470742;28;20195;-81
2022/01/03 00:32:38;;;;;;;1.53;0.67;;;7.80;99.90;;;;;;10479702;28;20232;-81
2022/01/03 00:38:00;;;;;;;2.30;0.50;;;7.80;99.90;;;;;;10484622;28;20200;-81
2022/01/03 00:43:29;;;;;;;1.77;0.80;;;7.70;99.90;;;;;;10484078;28;20195;-80
2022/01/03 00:48:54;;;;;;;1.13;0.60;;;7.70;99.90;;;;;;10483644;28;20239;-79
2022/01/03 00:54:18;;;;;;;0.90;0.60;;;7.60;99.90;;;;;;10483576;28;20202;-81
2022/01/03 01:00:02;;;;;;;1.07;0.60;;;7.70;99.90;;;;;;10469511;28;20198;-80
2022/01/03 01:05:26;;;;;;;3.07;0.60;;;7.60;99.90;;;;;;10430076;28;20549;-78
2022/01/03 01:10:51;;;;;;;4.23;0.70;;;7.60;99.90;;;;;;10427790;28;20523;-81
2022/01/03 01:16:15;;;;;;;1.97;0.80;;;7.60;99.90;;;;;;10426620;28;20200;-79
2022/01/03 01:21:42;;;;;;;1.40;0.60;;;7.50;99.90;;;;;;10427363;28;20200;-79
2022/01/03 01:33:03;;;;;;;4.80;0.90;;;7.50;99.90;;;;;;10443664;28;20287;-79
2022/01/03 01:38:34;;;;;;;3.07;1.10;;;7.50;99.90;;;;;;10467920;28;20200;-79
2022/01/03 01:43:59;;;;;;;0.90;0.57;;;7.40;99.90;;;;;;10467443;28;20214;-79
2022/01/03 01:49:25;;;;;;;5.10;0.80;;;7.40;99.90;;;;;;10467189;28;20234;-81
2022/01/03 01:55:00;;;;;;;0.80;0.80;;;7.40;99.90;;;;;;10468115;28;20242;-78
2022/01/03 02:00:28;;;;;;;5.87;0.60;;;7.40;99.90;;;;;;10466518;28;20222;-80
2022/01/03 02:06:21;;;;;;;2.93;0.70;;;7.40;99.90;;;;;;10466943;28;20219;-80
2022/01/03 02:11:57;;;;;;;3.23;0.60;;;7.30;99.90;;;;;;10480885;28;20222;-79
2022/01/03 02:17:25;;;;;;;2.53;1.17;;;7.30;99.90;;;;;;10466275;28;20495;-80
2022/01/03 02:22:48;;;;;;;2.23;1.00;;;7.30;99.90;;;;;;10466253;28;20428;-79
2022/01/03 02:28:13;;;;;;;2.23;0.93;;;7.30;99.90;;;;;;10466565;28;20201;-80
2022/01/03 02:33:36;;;;;;;1.53;0.70;;;7.40;99.90;;;;;;10445114;28;20301;-80
2022/01/03 02:39:00;;;;;;;2.47;1.00;;;7.30;99.90;;;;;;10465453;28;20223;-79
2022/01/03 02:44:23;;;;;;;3.20;0.80;;;7.30;99.90;;;;;;10464629;28;20559;-80
2022/01/03 02:49:44;;;;;;;1.90;1.20;;;7.40;99.90;;;;;;10464704;28;20321;-80
2022/01/03 02:55:09;;;;;;;5.57;1.60;;;7.30;99.90;;;;;;10465111;28;20282;-80
2022/01/03 03:00:33;;;;;;;3.63;1.17;;;7.20;99.90;;;;;;10464375;28;20185;-80
2022/01/03 03:05:58;;;;;;;4.30;1.10;;;7.20;99.90;;;;;;10451203;28;20297;-80
2022/01/03 03:11:22;;;;;;;2.23;1.00;;;7.30;99.90;;;;;;10478313;28;20297;-80
2022/01/03 03:16:46;;;;;;;3.57;1.20;;;7.30;99.90;;;;;;10464004;28;20199;-80
2022/01/03 03:22:08;;;;;;;3.37;1.40;;;7.20;99.90;;;;;;10463866;28;20212;-81
2022/01/03 03:27:30;;;;;;;4.33;1.10;;;7.30;99.90;;;;;;10477861;28;20191;-80
2022/01/03 03:33:12;;;;;;;2.27;1.40;;;7.20;99.90;;;;;;10476124;28;20655;-80
2022/01/03 03:38:37;;;;;;;2.40;1.10;;;7.10;99.90;;;;;;10476936;28;20195;-80
2022/01/03 03:44:04;;;;;;;3.47;1.90;;;7.10;99.90;;;;;;10463164;28;20524;-80
2022/01/03 03:49:26;;;;;;;6.07;1.67;;;7.20;99.90;;;;;;10449286;28;20247;-81
2022/01/03 03:54:49;;;;;;;8.67;1.90;;;7.20;99.90;;;;;;10477320;28;20249;-80
2022/01/03 04:00:15;;;;;;;4.17;1.70;;;7.20;99.90;;;;;;10477161;28;20258;-80
2022/01/03 04:05:43;;;;;;;9.00;1.80;;;7.20;99.90;;;;;;10464359;28;20200;-81
2022/01/03 04:11:05;;;;;;;6.87;2.00;;;7.10;99.90;;;;;;10462821;28;20226;-80
2022/01/03 04:16:28;;;;;;;10.50;1.73;;;7.10;99.90;;;;;;10476824;28;20241;-79
2022/01/03 04:21:50;;;;;;;6.57;2.03;;;7.10;99.90;;;;;;10462709;28;20281;-80
2022/01/03 04:27:12;;;;;;;8.87;2.43;;;7.10;99.90;;;;;;10462327;28;20198;-79
2022/01/03 04:32:34;;;;;;;9.10;2.73;;;7.10;99.90;;;;;;10459132;28;20235;-80
2022/01/03 04:37:57;;;;;;;6.13;2.07;;;7.10;99.90;;;;;;10421298;28;20214;-79
2022/01/03 04:43:19;;;;;;;9.80;2.50;;;7.00;99.90;;;;;;10434955;28;20433;-80
2022/01/03 04:48:42;;;;;;;10.47;3.30;;;7.10;99.90;;;;;;10422097;28;20240;-80
2022/01/03 04:54:04;;;;;;;9.53;2.70;;;7.00;99.90;;;;;;10441929;28;20237;-80
2022/01/03 04:59:27;;;;;;;7.03;2.30;;;7.00;99.90;;;;;;10428349;28;20195;-80
2022/01/03 05:04:49;;;;;;;7.87;2.77;;;7.00;99.90;;;;;;10441677;28;20196;-80
2022/01/03 05:10:11;;;;;;;10.60;2.43;;;6.90;99.90;;;;;;10457516;28;20535;-80
2022/01/03 05:15:33;;;;;;;9.63;2.80;;;6.90;99.90;;;;;;10482610;28;20200;-80
2022/01/03 05:20:56;;;;;;;10.03;2.90;;;6.90;99.90;;;;;;10468976;28;20199;-79
2022/01/03 05:26:18;;;;;;;10.80;3.40;;;6.90;99.90;;;;;;10468109;28;20229;-80
2022/01/03 05:31:41;;;;;;;14.77;3.30;;;6.90;99.90;;;;;;10472090;28;20265;-79
2022/01/03 05:37:03;;;;;;;12.97;2.23;;;6.90;99.90;;;;;;10426622;28;20200;-80
2022/01/03 05:42:27;;;;;;;7.97;2.20;;;6.90;99.90;;;;;;10440704;28;20557;-80
2022/01/03 05:47:50;;;;;;;12.90;2.33;;;6.80;99.90;;;;;;10440274;28;20285;-80
2022/01/03 05:53:13;;;;;;;13.20;2.37;;;6.80;99.90;;;;;;10425655;28;20274;-79
2022/01/03 05:58:36;;;;;;;10.47;2.17;;;6.90;99.90;;;;;;10425581;28;20484;-79
2022/01/03 06:04:10;;;;;;;8.30;2.33;;;6.80;99.90;;;;;;10434309;28;20191;-80
2022/01/03 06:09:32;;;;;;;9.37;2.27;;;6.80;99.90;;;;;;10451871;28;20515;-79
2022/01/03 06:14:55;;;;;;;7.50;2.30;;;6.70;99.90;;;;;;10466334;28;20370;-80
2022/01/03 06:20:19;;;;;;;7.07;2.20;;;6.70;99.90;;;;;;10480190;28;20197;-80
2022/01/03 06:25:43;;;;;;;6.67;2.03;;;6.70;99.90;;;;;;10480186;28;20206;-79
2022/01/03 06:31:07;;;;;;;10.40;2.37;;;6.80;99.90;;;;;;10465328;28;20236;-79
2022/01/03 06:36:30;;;;;;;5.87;1.80;;;6.70;99.90;;;;;;10465846;28;20188;-79
2022/01/03 06:41:56;;;;;;;8.13;2.63;;;6.70;99.90;;;;;;10479377;28;20203;-79
2022/01/03 06:47:17;;;;;;;8.00;3.27;;;6.70;99.90;;;;;;10464965;28;20192;-80
2022/01/03 06:52:39;;;;;;;8.97;2.23;;;6.70;99.90;;;;;;10494269;28;20228;-80
2022/01/03 06:58:01;;;;;;;10.27;2.03;;;6.80;99.90;;;;;;10478462;28;20253;-80
2022/01/03 07:03:24;;;;;;;13.73;2.63;;;6.80;99.90;;;;;;10431011;28;20199;-80
2022/01/03 07:08:46;;;;;;;8.90;2.73;;;6.80;99.90;;;;;;10437268;28;20196;-80
2022/01/03 07:19:54;;;;;;;6.77;1.67;;;6.80;99.90;;;;;;10478671;28;20542;-79
2022/01/03 07:25:17;;;;;;;10.20;3.57;;;6.80;99.90;;;;;;10477655;28;20199;-79
2022/01/03 07:30:39;;;;;;;6.20;3.13;;;6.80;99.90;;;;;;10463338;28;20224;-80
2022/01/03 07:36:01;;;;;;;10.07;2.87;;;6.80;99.90;;;;;;10477146;28;20209;-80
2022/01/03 07:41:23;;;;;;;11.03;2.77;;;6.90;99.90;;;;;;10477535;28;20242;-79
2022/01/03 07:46:45;;;;;;;8.17;2.20;;;6.80;99.90;;;;;;10477152;28;20192;-79
2022/01/03 07:52:07;;;;;;;10.40;2.67;;;6.80;99.90;;;;;;10476701;28;20251;-79
2022/01/03 07:57:30;;;;;;;8.03;2.33;;;6.90;99.90;;;;;;10476840;28;20278;-79
2022/01/03 08:02:52;;;;;;;7.57;2.63;;;6.90;99.90;;;;;;10459209;28;20219;-79
2022/01/03 08:08:13;;;;;;;13.20;2.80;;;6.90;99.90;;;;;;10397691;28;20238;-80
2022/01/03 08:13:35;;;;;;;9.73;2.73;;;6.90;99.90;;;;;;10462983;28;20225;-79
2022/01/03 08:18:57;;;;;;;8.90;2.30;;;6.90;99.90;;;;;;10512309;28;20216;-85
2022/01/03 08:24:23;;;;;;;7.97;2.27;;;6.90;99.90;;;;;;10489722;28;20505;-78
2022/01/03 08:29:45;;;;;;;4.73;2.80;;;6.80;99.90;;;;;;10480030;28;20229;-82
2022/01/03 08:35:08;;;;;;;11.10;4.37;;;6.90;99.90;;;;;;10465552;28;20338;-76
2022/01/03 08:40:31;;;;;;;11.63;4.33;;;6.90;99.90;;;;;;10481189;28;20211;-78
2022/01/03 08:45:53;;;;;;;11.10;3.63;;;7.00;99.90;;;;;;10483347;28;20206;-85
2022/01/03 08:51:15;;;;;;;10.73;4.27;;;7.00;99.90;;;;;;10451056;28;20253;-81
2022/01/03 08:56:38;;;;;;;8.40;3.40;;;7.00;99.90;;;;;;10451247;28;20223;-81
2022/01/03 09:02:01;;;;;;;9.73;3.77;;;7.10;99.90;;;;;;10465527;28;20259;-86
2022/01/03 09:07:23;;;;;;;7.27;2.80;;;7.20;99.90;;;;;;10476380;28;20517;-80
2022/01/03 09:12:46;;;;;;;5.37;2.57;;;7.10;99.90;;;;;;10478726;28;20245;-83
2022/01/03 09:18:08;;;;;;;5.70;2.50;;;7.10;99.90;;;;;;10463604;28;20281;-80
2022/01/03 09:23:34;;;;;;;7.60;3.00;;;7.10;99.90;;;;;;10464377;28;20259;-81
2022/01/03 09:28:56;;;;;;;9.70;3.17;;;7.10;99.90;;;;;;10462923;28;20291;-81
2022/01/03 09:34:18;;;;;;;11.23;4.13;;;7.20;99.90;;;;;;10462364;28;20227;-84
2022/01/03 09:39:45;;;;;;;11.73;3.87;;;7.20;99.90;;;;;;10463567;28;20241;-82
2022/01/03 09:45:17;;;;;;;9.93;3.77;;;7.20;99.90;;;;;;10478117;28;20197;-84
2022/01/03 09:50:49;;;;;;;8.97;3.80;;;7.20;99.90;;;;;;10461226;28;20254;-85
2022/01/03 09:56:19;;;;;;;11.10;4.03;;;7.20;99.90;;;;;;10476392;28;20192;-82
2022/01/03 10:01:47;;;;;;;5.07;3.47;;;7.30;99.90;;;;;;10460815;28;20203;-81
2022/01/03 10:07:17;;;;;;;13.30;4.67;;;7.30;99.90;;;;;;10464544;28;20224;-79
2022/01/03 10:12:40;;;;;;;13.47;4.60;;;7.30;99.90;;;;;;10447266;28;20247;-80
2022/01/03 10:18:02;;;;;;;9.60;4.30;;;7.30;99.90;;;;;;10419969;28;20211;-81
2022/01/03 10:23:24;;;;;;;12.57;4.83;;;7.30;99.90;;;;;;10421026;28;20208;-85
2022/01/03 10:28:47;;;;;;;13.93;4.07;;;7.30;99.90;;;;;;10407006;28;20285;-80
2022/01/03 10:34:15;;;;;;;13.60;4.00;;;7.40;99.90;;;;;;10459603;28;20239;-84
2022/01/03 10:39:38;;;;;;;8.00;3.83;;;7.50;99.90;;;;;;10455531;28;20195;-83
2022/01/03 10:45:01;;;;;;;7.40;3.40;;;7.40;99.90;;;;;;10474399;28;20203;-82
2022/01/03 10:50:24;;;;;;;11.07;4.10;;;7.60;99.90;;;;;;10459391;28;20293;-77
2022/01/03 10:55:46;;;;;;;14.40;4.13;;;7.70;99.90;;;;;;10459503;28;20801;-82
2022/01/03 11:01:21;;;;;;;8.03;3.80;;;7.80;99.90;;;;;;10439330;28;20514;-81
2022/01/03 11:10:43;;;;;;;8.27;4.10;;;8.00;99.90;;;;;;10458485;28;20219;-82
2022/01/03 11:13:18;;;;;;;12.43;4.53;;;7.80;99.90;;;;;;10458448;28;20254;-80
2022/01/03 11:18:48;;;;;;;56.20;7.90;;;7.80;99.90;;;;;;10473887;28;20199;-83
2022/01/03 11:24:14;;;;;;;17.43;4.93;;;7.70;99.90;;;;;;10472302;28;20221;-82
2022/01/03 11:29:36;;;;;;;4.90;2.00;;;7.60;99.90;;;;;;10473374;28;20249;-80
2022/01/03 11:35:00;;;;;;;1.93;1.50;;;7.60;99.90;;;;;;10473298;28;20231;-81
2022/01/03 11:40:22;;;;;;;2.90;1.80;;;7.70;99.90;;;;;;10472164;28;20229;-80
2022/01/03 11:45:44;;;;;;;14.23;8.30;;;7.60;99.90;;;;;;10473899;28;20238;-83
2022/01/03 11:51:11;;;;;;;5.37;2.20;;;7.60;99.90;;;;;;10459185;28;20247;-81
2022/01/03 11:56:38;;;;;;;3.27;1.50;;;7.60;99.90;;;;;;10458706;28;20191;-85
2022/01/03 12:08:01;;;;;;;2.00;1.10;;;7.40;99.90;;;;;;10478268;28;20212;-80
2022/01/03 12:13:48;;;;;;;3.03;1.30;;;7.50;99.90;;;;;;10472290;28;20265;-80
2022/01/03 12:19:27;;;;;;;4.13;1.63;;;7.40;99.90;;;;;;10471220;28;20276;-81
2022/01/03 12:25:00;;;;;;;6.23;2.00;;;7.40;99.90;;;;;;10457110;28;20208;-82
2022/01/03 12:30:25;;;;;;;9.07;2.13;;;7.40;99.90;;;;;;10472093;28;20269;-79
2022/01/03 12:35:49;;;;;;;8.73;1.93;;;7.50;99.90;;;;;;10416767;28;20200;-77
2022/01/03 12:41:11;;;;;;;5.00;1.63;;;7.60;99.90;;;;;;10431103;28;20200;-83
2022/01/03 12:46:33;;;;;;;5.43;2.27;;;7.50;99.90;;;;;;10431104;28;20268;-86
2022/01/03 12:52:13;;;;;;;6.70;1.40;;;7.60;99.90;;;;;;10416788;28;20561;-82
2022/01/03 12:57:35;;;;;;;4.70;1.77;;;7.50;99.90;;;;;;10417190;28;20200;-85
2022/01/03 13:03:37;;;;;;;4.87;2.73;;;7.50;99.90;;;;;;10469966;28;20600;-79
2022/01/03 13:08:58;;;;;;;5.60;1.90;;;7.40;99.90;;;;;;10469260;28;20243;-81
2022/01/03 13:14:23;;;;;;;8.90;2.30;;;7.40;99.90;;;;;;10465854;28;20443;-82
2022/01/03 13:19:45;;;;;;;7.87;2.37;;;7.40;99.90;;;;;;10477887;28;20252;-81
2022/01/03 13:25:08;;;;;;;7.47;2.10;;;7.30;99.90;;;;;;10477326;28;20453;-84
2022/01/03 13:30:30;;;;;;;12.33;3.30;;;7.30;99.90;;;;;;10463881;28;20207;-81
2022/01/03 13:36:03;;;;;;;8.63;2.90;;;7.30;99.90;;;;;;10489327;28;20213;-79
2022/01/03 13:41:25;;;;;;;8.37;2.80;;;7.30;99.90;;;;;;10518540;28;20221;-79
2022/01/03 13:52:43;;;;;;;6.87;2.50;;;7.30;99.90;;;;;;10518546;28;20731;-79
2022/01/03 13:58:09;;;;;;;11.13;3.73;;;7.30;99.90;;;;;;10513952;28;20212;-81
2022/01/03 14:03:31;;;;;;;8.47;2.63;;;7.50;99.90;;;;;;10476626;28;20516;-77
2022/01/03 14:08:53;;;;;;;6.50;2.57;;;7.40;99.90;;;;;;10460523;28;20271;-78
2022/01/03 14:14:17;;;;;;;6.20;1.93;;;7.40;99.90;;;;;;10476298;28;20222;-78
2022/01/03 14:19:40;;;;;;;7.57;2.33;;;7.40;99.90;;;;;;10475102;28;20211;-80
2022/01/03 14:25:10;;;;;;;5.67;2.30;;;7.30;99.90;;;;;;10460541;28;20204;-81
2022/01/03 14:30:36;;;;;;;8.03;2.47;;;7.30;99.90;;;;;;10474727;28;20209;-82
2022/01/03 14:36:18;;;;;;;5.17;2.30;;;7.20;99.90;;;;;;10461237;28;20239;-81
2022/01/03 14:41:42;;;;;;;6.17;1.90;;;7.10;99.90;;;;;;10420232;28;20219;-77
2022/01/03 14:47:11;;;;;;;4.83;1.50;;;7.20;99.90;;;;;;10429590;28;20259;-77
2022/01/03 14:52:46;;;;;;;10.40;2.87;;;7.10;99.90;;;;;;10432370;28;20243;-80
2022/01/03 14:58:09;;;;;;;10.57;3.20;;;7.10;99.90;;;;;;10436429;28;20391;-76
2022/01/03 15:03:31;;;;;;;10.07;3.13;;;7.10;99.90;;;;;;10456926;28;20384;-77
2022/01/03 15:08:54;;;;;;;9.23;3.40;;;7.10;99.90;;;;;;10469643;28;20215;-77
2022/01/03 15:14:19;;;;;;;10.93;4.53;;;7.00;99.90;;;;;;10472513;28;20544;-76
2022/01/03 15:19:41;;;;;;;15.00;5.57;;;7.00;99.90;;;;;;10474202;28;20406;-76
2022/01/03 15:25:06;;;;;;;13.93;4.57;;;7.00;99.90;;;;;;10472560;28;20215;-79
2022/01/03 15:30:37;;;;;;;12.13;4.47;;;7.00;99.90;;;;;;10476190;28;20197;-77
2022/01/03 15:36:14;;;;;;;16.57;5.20;;;7.00;99.90;;;;;;10435625;28;20255;-78
2022/01/03 15:41:36;;;;;;;16.47;4.47;;;7.00;99.90;;;;;;10435725;28;20192;-78
2022/01/03 15:46:59;;;;;;;10.40;3.33;;;7.10;99.90;;;;;;10435621;28;20193;-79
2022/01/03 15:52:21;;;;;;;14.47;3.23;;;7.10;99.90;;;;;;10435938;28;20246;-79
2022/01/03 15:57:43;;;;;;;13.53;3.93;;;7.20;99.90;;;;;;10438713;28;20258;-79
2022/01/03 16:03:06;;;;;;;17.43;4.30;;;7.10;99.90;;;;;;10451473;28;20237;-79
2022/01/03 16:08:28;;;;;;;11.53;3.57;;;7.10;99.90;;;;;;10465740;28;20206;-78
2022/01/03 16:13:50;;;;;;;19.27;6.13;;;7.10;99.90;;;;;;10476399;28;20227;-77
2022/01/03 16:19:13;;;;;;;14.47;4.37;;;7.00;99.90;;;;;;10462396;28;20202;-79
2022/01/03 16:24:35;;;;;;;15.67;5.40;;;7.00;99.90;;;;;;10476082;28;20222;-79
2022/01/03 16:29:57;;;;;;;21.40;8.23;;;7.00;99.90;;;;;;10474376;28;20206;-80
2022/01/03 16:35:19;;;;;;;15.60;7.13;;;6.90;99.90;;;;;;10477122;28;20242;-79
2022/01/03 16:40:46;;;;;;;17.00;6.30;;;6.90;99.90;;;;;;10460718;28;20211;-79
2022/01/03 16:46:08;;;;;;;23.13;9.20;;;6.80;99.90;;;;;;10479037;28;20201;-78
2022/01/03 16:51:30;;;;;;;21.20;7.27;;;6.80;99.90;;;;;;10480419;28;20610;-79
2022/01/03 16:56:53;;;;;;;12.30;3.93;;;6.80;99.90;;;;;;10483625;28;20203;-79
2022/01/03 17:02:15;;;;;;;25.47;7.10;;;6.70;99.90;;;;;;10458755;28;20271;-79
2022/01/03 17:07:37;;;;;;;19.40;6.70;;;6.70;99.90;;;;;;10439048;28;20213;-79
2022/01/03 17:12:59;;;;;;;19.97;5.00;;;6.70;99.90;;;;;;10499158;28;20233;-79
2022/01/03 17:18:21;;;;;;;25.23;9.20;;;6.70;99.90;;;;;;10468713;28;20253;-79
2022/01/03 17:23:44;;;;;;;23.97;9.63;;;6.70;99.90;;;;;;10482502;28;20214;-79
2022/01/03 17:29:06;;;;;;;22.40;7.63;;;6.70;99.90;;;;;;10483223;28;20195;-79
2022/01/03 17:34:29;;;;;;;17.17;6.67;;;6.70;99.90;;;;;;10482187;28;20222;-79
2022/01/03 17:39:52;;;;;;;26.90;7.80;;;6.70;99.90;;;;;;10482940;28;20197;-79
2022/01/03 17:45:13;;;;;;;18.10;5.47;;;6.70;99.90;;;;;;10481772;28;20597;-79
2022/01/03 17:50:37;;;;;;;18.13;6.30;;;6.70;99.90;;;;;;10467471;28;20580;-79
2022/01/03 17:55:59;;;;;;;14.73;6.17;;;6.70;99.90;;;;;;10480675;28;20229;-79
2022/01/03 18:01:21;;;;;;;13.10;4.87;;;6.60;99.90;;;;;;10480971;28;20194;-79
2022/01/03 18:06:43;;;;;;;16.27;4.53;;;6.60;99.90;;;;;;10481835;28;20214;-79
2022/01/03 18:12:06;;;;;;;13.47;3.97;;;6.50;99.90;;;;;;10480324;28;20234;-79
2022/01/03 18:17:28;;;;;;;23.97;9.43;;;6.40;99.90;;;;;;10480707;28;20194;-80
2022/01/03 18:22:50;;;;;;;22.90;6.90;;;6.50;99.90;;;;;;10465492;28;20494;-80
2022/01/03 18:28:12;;;;;;;23.00;7.60;;;6.50;99.90;;;;;;10480352;28;20254;-79
2022/01/03 18:33:34;;;;;;;35.37;12.30;;;6.40;99.90;;;;;;10479723;28;20285;-80
2022/01/03 18:38:56;;;;;;;37.67;13.50;;;6.40;99.90;;;;;;10480490;28;20195;-79
2022/01/03 18:44:18;;;;;;;24.73;9.20;;;6.40;99.90;;;;;;10479550;28;20519;-79
2022/01/03 18:49:41;;;;;;;41.53;15.03;;;6.40;99.90;;;;;;10478781;28;20286;-79
2022/01/03 18:55:05;;;;;;;31.30;12.20;;;6.40;99.90;;;;;;10451202;28;20234;-79
2022/01/03 19:00:30;;;;;;;41.67;14.20;;;6.40;99.90;;;;;;10437102;28;20508;-79
2022/01/03 19:05:52;;;;;;;52.97;16.03;;;6.40;99.90;;;;;;10434071;28;20253;-79
2022/01/03 19:11:14;;;;;;;37.67;12.73;;;6.40;99.90;;;;;;10466413;28;20217;-78
2022/01/03 19:16:37;;;;;;;37.73;12.03;;;6.40;99.90;;;;;;10464423;28;20225;-79
2022/01/03 19:22:00;;;;;;;30.07;10.27;;;6.40;99.90;;;;;;10477685;28;20195;-79
2022/01/03 19:27:22;;;;;;;30.30;12.00;;;6.30;99.90;;;;;;10478147;28;20202;-79
2022/01/03 19:38:41;;;;;;;23.90;8.00;;;6.10;99.90;;;;;;10392489;28;20260;-79
2022/01/03 19:44:03;;;;;;;31.33;7.00;;;6.00;99.90;;;;;;10392519;28;20288;-78
2022/01/03 19:49:27;;;;;;;27.93;11.07;;;6.00;99.90;;;;;;10361980;28;20236;-78
2022/01/03 19:54:49;;;;;;;20.20;6.90;;;6.10;99.90;;;;;;10392274;28;20235;-79
2022/01/03 20:00:14;;;;;;;13.63;4.30;;;6.10;99.90;;;;;;10392554;28;20298;-79
2022/01/03 20:05:42;;;;;;;11.97;3.33;;;6.20;99.90;;;;;;10378539;28;20295;-78
2022/01/03 20:11:04;;;;;;;13.10;3.87;;;6.20;99.90;;;;;;10370391;28;20215;-79
2022/01/03 20:16:26;;;;;;;10.40;3.07;;;6.10;99.90;;;;;;10435323;28;20218;-79
2022/01/03 20:21:51;;;;;;;12.37;4.43;;;6.00;99.90;;;;;;10428298;28;20210;-79
2022/01/03 20:27:13;;;;;;;14.17;4.80;;;6.10;99.90;;;;;;10443745;28;20221;-78
2022/01/03 20:32:37;;;;;;;14.43;5.47;;;6.10;99.90;;;;;;10484242;28;20241;-79
2022/01/03 20:37:59;;;;;;;19.03;7.40;;;6.00;99.90;;;;;;10484413;28;20273;-79
2022/01/03 20:43:21;;;;;;;19.43;7.33;;;5.90;99.90;;;;;;10484617;28;20393;-79
2022/01/03 20:48:45;;;;;;;33.57;10.87;;;5.90;99.90;;;;;;10469643;28;20284;-79
2022/01/03 20:54:07;;;;;;;26.50;9.70;;;5.90;99.90;;;;;;10483023;28;20409;-79
2022/01/03 20:59:30;;;;;;;20.60;7.70;;;5.90;99.90;;;;;;10469464;28;20190;-79
2022/01/03 21:04:51;;;;;;;20.33;7.83;;;5.90;99.90;;;;;;10484262;28;20199;-79
2022/01/03 21:10:15;;;;;;;14.23;5.33;;;5.90;99.90;;;;;;10482881;28;20194;-79
2022/01/03 21:15:37;;;;;;;17.17;4.80;;;5.80;99.90;;;;;;10457831;28;20226;-79
2022/01/03 21:21:15;;;;;;;17.57;5.67;;;5.80;99.90;;;;;;10448872;28;20279;-79
2022/01/03 21:26:37;;;;;;;18.47;6.10;;;5.70;99.90;;;;;;10482756;28;20248;-79
2022/01/03 21:32:00;;;;;;;22.63;7.37;;;5.60;99.90;;;;;;10454470;28;20292;-79
2022/01/03 21:37:22;;;;;;;17.27;7.53;;;5.60;99.90;;;;;;10468363;28;20422;-79
2022/01/03 21:42:51;;;;;;;18.47;6.40;;;5.60;99.90;;;;;;10468309;28;20211;-79
2022/01/03 21:48:13;;;;;;;20.93;7.20;;;5.60;99.90;;;;;;10481406;28;20243;-78
2022/01/03 21:53:36;;;;;;;25.50;7.80;;;5.60;99.90;;;;;;10481698;28;20295;-79
2022/01/03 21:58:57;;;;;;;21.63;6.63;;;5.70;99.90;;;;;;10481555;28;20190;-78
2022/01/03 22:04:21;;;;;;;20.13;6.23;;;5.70;99.90;;;;;;10453536;28;20219;-79
2022/01/03 22:09:42;;;;;;;18.90;7.40;;;5.70;99.90;;;;;;10439980;28;20192;-79
2022/01/03 22:15:07;;;;;;;16.90;5.77;;;5.70;99.90;;;;;;10412181;28;20281;-78
2022/01/03 22:20:30;;;;;;;19.50;6.53;;;5.70;99.90;;;;;;10438894;28;20206;-78
2022/01/03 22:25:52;;;;;;;14.30;6.37;;;5.80;99.90;;;;;;10439077;28;20209;-79
2022/01/03 22:31:15;;;;;;;16.60;6.53;;;5.80;99.90;;;;;;10446169;28;20414;-78
2022/01/03 22:36:38;;;;;;;14.37;6.07;;;5.80;99.90;;;;;;10424952;28;20460;-78
2022/01/03 22:42:00;;;;;;;13.23;5.73;;;5.80;99.90;;;;;;10438281;28;20264;-78
2022/01/03 22:47:22;;;;;;;18.10;6.23;;;5.90;99.90;;;;;;10438157;28;20379;-80
2022/01/03 22:52:44;;;;;;;17.40;6.13;;;5.80;99.90;;;;;;10437888;28;20231;-79
2022/01/03 22:58:06;;;;;;;14.37;6.50;;;5.80;99.90;;;;;;10451910;28;20484;-78
2022/01/03 23:03:28;;;;;;;12.53;6.20;;;5.80;99.90;;;;;;10424608;28;20202;-79
2022/01/03 23:08:52;;;;;;;14.40;6.37;;;5.80;99.90;;;;;;10473601;28;20278;-78
2022/01/03 23:14:14;;;;;;;17.40;5.77;;;5.80;99.90;;;;;;10478195;28;20301;-79
2022/01/03 23:19:36;;;;;;;13.77;5.50;;;5.70;99.90;;;;;;10464230;28;20229;-79
2022/01/03 23:24:58;;;;;;;12.77;5.43;;;5.70;99.90;;;;;;10478260;28;20485;-78
2022/01/03 23:30:21;;;;;;;14.43;5.70;;;5.70;99.90;;;;;;10477769;28;20203;-79
2022/01/03 23:35:43;;;;;;;16.37;5.77;;;5.70;99.90;;;;;;10463652;28;20234;-79
2022/01/03 23:41:05;;;;;;;13.33;6.20;;;5.70;99.90;;;;;;10477556;28;20524;-78
2022/01/03 23:46:27;;;;;;;13.57;4.67;;;5.70;99.90;;;;;;10463152;28;20199;-78
2022/01/03 23:51:49;;;;;;;13.00;5.47;;;5.70;99.90;;;;;;10462895;28;20270;-78
2022/01/03 23:57:11;;;;;;;15.60;5.00;;;5.70;99.90;;;;;;10462451;28;20206;-78
